createdAt,value
2024-02-11T00:01:42.045Z,15.10
2024-02-11T00:03:44.234Z,13.50
2024-02-11T00:05:46.396Z,14.87
2024-02-11T00:07:49.461Z,13.90
2024-02-11T00:09:51.535Z,14.93
2024-02-11T00:11:53.673Z,14.87
2024-02-11T00:13:56.616Z,15.40
2024-02-11T00:16:02.284Z,14.97
2024-02-11T00:18:06.533Z,16.60
2024-02-11T00:20:11.924Z,15.10
2024-02-11T00:22:14.785Z,15.47
2024-02-11T00:24:16.727Z,13.80
2024-02-11T00:26:18.892Z,15.30
2024-02-11T00:28:24.548Z,16.50
2024-02-11T00:30:28.253Z,15.90
2024-02-11T00:32:30.389Z,17.53
2024-02-11T00:34:32.893Z,17.13
2024-02-11T00:36:37.283Z,17.10
2024-02-11T00:38:40.801Z,16.83
2024-02-11T00:40:43.615Z,16.27
2024-02-11T00:42:49.305Z,18.33
2024-02-11T00:44:53.104Z,17.17
2024-02-11T00:46:55.210Z,16.23
2024-02-11T00:48:57.455Z,17.27
2024-02-11T00:50:59.469Z,16.87
2024-02-11T00:53:06.620Z,17.67
2024-02-11T00:55:23.019Z,16.63
2024-02-11T00:57:25.146Z,17.63
2024-02-11T00:59:27.278Z,16.77
2024-02-11T01:01:29.302Z,17.80
2024-02-11T01:03:31.306Z,18.37
2024-02-11T01:05:33.436Z,17.70
2024-02-11T01:07:40.186Z,18.00
2024-02-11T01:09:42.457Z,17.33
2024-02-11T01:11:44.962Z,18.67
2024-02-11T01:13:47.370Z,18.93
2024-02-11T01:15:49.654Z,19.20
2024-02-11T01:17:53.364Z,20.23
2024-02-11T01:19:55.524Z,19.63
2024-02-11T01:21:57.552Z,19.70
2024-02-11T01:23:59.518Z,20.67
2024-02-11T01:26:01.720Z,21.53
2024-02-11T01:28:04.008Z,21.13
2024-02-11T01:30:07.490Z,20.80
2024-02-11T01:32:10.587Z,23.17
2024-02-11T01:34:12.766Z,23.13
2024-02-11T01:36:14.938Z,24.20
2024-02-11T01:38:17.103Z,22.87
2024-02-11T01:40:20.922Z,23.00
2024-02-11T01:42:23.146Z,25.17
2024-02-11T01:44:25.255Z,25.70
2024-02-11T01:46:27.754Z,24.60
2024-02-11T01:48:32.001Z,25.73
2024-02-11T01:50:35.245Z,29.30
2024-02-11T01:52:37.712Z,29.10
2024-02-11T01:54:39.748Z,29.97
2024-02-11T01:56:42.064Z,28.90
2024-02-11T01:58:45.002Z,29.40
2024-02-11T02:00:48.680Z,31.07
2024-02-11T02:02:51.945Z,32.00
2024-02-11T02:04:54.371Z,29.60
2024-02-11T02:06:58.224Z,30.23
2024-02-11T02:09:01.383Z,31.33
2024-02-11T02:11:04.758Z,32.60
2024-02-11T02:13:07.033Z,35.77
2024-02-11T02:15:09.824Z,32.93
2024-02-11T02:17:12.151Z,34.37
2024-02-11T02:19:16.136Z,34.63
2024-02-11T02:21:19.650Z,36.73
2024-02-11T02:23:21.854Z,36.73
2024-02-11T02:25:23.859Z,38.23
2024-02-11T02:27:25.898Z,36.87
2024-02-11T02:29:28.138Z,39.53
2024-02-11T02:31:30.235Z,39.73
2024-02-11T02:33:32.613Z,39.70
2024-02-11T02:35:35.013Z,39.47
2024-02-11T02:37:37.179Z,42.10
2024-02-11T02:39:39.542Z,39.67
2024-02-11T02:41:41.848Z,39.80
2024-02-11T02:43:44.041Z,39.07
2024-02-11T02:45:46.265Z,39.20
2024-02-11T02:47:48.821Z,41.00
2024-02-11T02:49:51.029Z,41.87
2024-02-11T02:51:53.059Z,39.80
2024-02-11T02:53:55.119Z,38.27
2024-02-11T02:55:57.740Z,39.63
2024-02-11T02:58:00.013Z,41.47
2024-02-11T03:00:04.419Z,42.60
2024-02-11T03:02:06.745Z,42.53
2024-02-11T03:04:09.683Z,43.17
2024-02-11T03:06:11.813Z,40.67
2024-02-11T03:08:14.398Z,41.50
2024-02-11T03:10:21.927Z,41.33
2024-02-11T03:12:24.133Z,40.97
2024-02-11T03:14:26.281Z,39.80
2024-02-11T03:16:28.399Z,39.60
2024-02-11T03:18:30.404Z,41.03
2024-02-11T03:20:32.592Z,40.00
2024-02-11T03:22:34.801Z,43.73
2024-02-11T03:24:38.868Z,43.60
2024-02-11T03:26:41.361Z,42.30
2024-02-11T03:28:43.552Z,42.83
2024-02-11T03:30:45.909Z,40.87
2024-02-11T03:32:49.271Z,44.50
2024-02-11T03:34:51.361Z,39.47
2024-02-11T03:36:53.452Z,41.17
2024-02-11T03:38:55.440Z,41.00
2024-02-11T03:40:57.669Z,42.90
2024-02-11T03:42:59.792Z,42.20
2024-02-11T03:45:05.679Z,41.20
2024-02-11T03:47:07.950Z,42.67
2024-02-11T03:49:10.226Z,41.80
2024-02-11T03:51:12.348Z,41.57
2024-02-11T03:53:22.253Z,41.17
2024-02-11T03:55:24.305Z,42.20
2024-02-11T03:57:27.145Z,41.00
2024-02-11T03:59:29.529Z,40.03
2024-02-11T04:01:31.631Z,43.20
2024-02-11T04:03:35.117Z,42.60
2024-02-11T04:05:41.024Z,42.40
2024-02-11T04:07:46.910Z,43.40
2024-02-11T04:09:49.589Z,42.60
2024-02-11T04:11:51.669Z,42.07
2024-02-11T04:13:55.835Z,42.50
2024-02-11T04:15:58.974Z,38.70
2024-02-11T04:18:09.381Z,40.00
2024-02-11T04:20:16.369Z,40.70
2024-02-11T04:22:18.653Z,41.03
2024-02-11T04:24:22.612Z,41.50
2024-02-11T04:26:24.961Z,40.70
2024-02-11T04:28:27.336Z,43.87
2024-02-11T04:30:31.155Z,40.40
2024-02-11T04:32:33.338Z,38.50
2024-02-11T04:34:35.397Z,43.63
2024-02-11T04:36:38.105Z,41.07
2024-02-11T04:38:40.523Z,43.80
2024-02-11T04:40:43.052Z,42.53
2024-02-11T04:42:54.155Z,40.07
2024-02-11T04:44:56.159Z,41.47
2024-02-11T04:47:01.613Z,38.43
2024-02-11T04:49:03.895Z,40.83
2024-02-11T04:51:08.567Z,40.80
2024-02-11T04:53:11.870Z,38.60
2024-02-11T04:55:14.045Z,40.77
2024-02-11T04:57:17.496Z,42.43
2024-02-11T04:59:19.694Z,40.53
2024-02-11T05:01:22.100Z,41.40
2024-02-11T05:03:25.354Z,42.50
2024-02-11T05:05:30.792Z,42.37
2024-02-11T05:07:33.493Z,40.87
2024-02-11T05:09:38.500Z,41.77
2024-02-11T05:11:40.817Z,42.57
2024-02-11T05:13:44.886Z,42.50
2024-02-11T05:15:50.588Z,40.47
2024-02-11T05:17:55.992Z,42.00
2024-02-11T05:19:58.225Z,43.63
2024-02-11T05:22:03.405Z,42.40
2024-02-11T05:24:06.486Z,41.10
2024-02-11T05:26:13.536Z,40.93
2024-02-11T05:28:17.677Z,41.93
2024-02-11T05:30:21.324Z,43.30
2024-02-11T05:32:23.488Z,41.87
2024-02-11T05:34:25.601Z,43.10
2024-02-11T05:36:27.674Z,43.00
2024-02-11T05:38:34.597Z,42.40
2024-02-11T05:40:39.954Z,43.60
2024-02-11T05:42:44.067Z,44.47
2024-02-11T05:44:46.169Z,42.30
2024-02-11T05:46:48.442Z,44.77
2024-02-11T05:48:50.612Z,41.77
2024-02-11T05:50:52.691Z,44.53
2024-02-11T05:52:55.681Z,43.67
2024-02-11T05:54:57.653Z,44.87
2024-02-11T05:56:59.662Z,43.90
2024-02-11T05:59:01.717Z,43.90
2024-02-11T06:01:06.051Z,43.10
2024-02-11T06:03:08.474Z,43.13
2024-02-11T06:05:14.322Z,44.57
2024-02-11T06:07:17.295Z,41.50
2024-02-11T06:09:22.549Z,42.57
2024-02-11T06:11:27.041Z,40.77
2024-02-11T06:13:29.167Z,42.43
2024-02-11T06:15:31.938Z,44.87
2024-02-11T06:17:34.908Z,41.60
2024-02-11T06:19:39.470Z,42.60
2024-02-11T06:21:41.641Z,43.37
2024-02-11T06:23:43.754Z,42.37
2024-02-11T06:25:45.935Z,42.50
2024-02-11T06:27:49.395Z,41.47
2024-02-11T06:29:51.870Z,41.93
2024-02-11T06:31:54.617Z,41.13
2024-02-11T06:33:57.035Z,41.40
2024-02-11T06:35:59.161Z,43.30
2024-02-11T06:38:01.378Z,43.47
2024-02-11T06:40:04.686Z,42.67
2024-02-11T06:42:10.979Z,41.30
2024-02-11T06:44:16.349Z,42.10
2024-02-11T06:46:19.304Z,41.70
2024-02-11T06:48:22.766Z,41.63
2024-02-11T06:50:25.164Z,42.27
2024-02-11T06:52:29.036Z,41.80
2024-02-11T06:54:31.552Z,40.13
2024-02-11T06:56:34.635Z,42.43
2024-02-11T06:58:38.804Z,43.40
2024-02-11T07:00:40.957Z,41.67
2024-02-11T07:02:43.036Z,40.70
2024-02-11T07:04:45.185Z,44.20
2024-02-11T07:06:47.863Z,43.20
2024-02-11T07:08:51.646Z,43.30
2024-02-11T07:10:53.722Z,43.37
2024-02-11T07:12:58.672Z,43.60
2024-02-11T07:15:00.751Z,42.30
2024-02-11T07:17:02.955Z,42.97
2024-02-11T07:19:05.747Z,44.70
2024-02-11T07:21:07.868Z,41.03
2024-02-11T07:23:10.328Z,41.10
2024-02-11T07:25:13.466Z,40.73
2024-02-11T07:27:16.499Z,43.77
2024-02-11T07:29:19.020Z,42.53
2024-02-11T07:31:21.124Z,43.73
2024-02-11T07:33:24.633Z,46.83
2024-02-11T07:35:27.125Z,42.70
2024-02-11T07:37:29.290Z,42.80
2024-02-11T07:39:31.329Z,45.50
2024-02-11T07:41:33.367Z,43.80
2024-02-11T07:43:35.655Z,43.10
2024-02-11T07:45:43.987Z,46.83
2024-02-11T07:47:50.562Z,43.93
2024-02-11T07:49:52.977Z,46.40
2024-02-11T07:51:56.995Z,42.63
2024-02-11T07:53:59.144Z,45.67
2024-02-11T07:56:04.300Z,43.77
2024-02-11T07:58:06.398Z,43.03
2024-02-11T08:00:08.748Z,44.13
2024-02-11T08:02:10.843Z,44.07
2024-02-11T08:04:13.873Z,41.33
2024-02-11T08:06:16.038Z,45.40
2024-02-11T08:08:18.199Z,43.80
2024-02-11T08:10:22.996Z,43.60
2024-02-11T08:12:25.168Z,41.50
2024-02-11T08:14:27.635Z,41.43
2024-02-11T08:16:29.784Z,45.10
2024-02-11T08:18:32.039Z,42.60
2024-02-11T08:20:34.282Z,42.30
2024-02-11T08:22:39.119Z,45.60
2024-02-11T08:24:42.006Z,46.33
2024-02-11T08:26:45.197Z,44.60
2024-02-11T08:28:47.579Z,47.57
2024-02-11T08:30:49.796Z,45.90
2024-02-11T08:32:52.026Z,49.33
2024-02-11T08:34:54.251Z,39.90
2024-02-11T08:36:56.477Z,43.30
2024-02-11T08:39:00.235Z,43.60
2024-02-11T08:41:04.028Z,44.23
2024-02-11T08:43:06.913Z,46.10
2024-02-11T08:45:09.515Z,46.23
2024-02-11T08:47:11.743Z,44.40
2024-02-11T08:49:16.194Z,45.97
2024-02-11T08:51:22.139Z,47.33
2024-02-11T08:53:24.689Z,45.37
2024-02-11T08:55:28.973Z,44.63
2024-02-11T08:57:31.101Z,45.60
2024-02-11T08:59:33.169Z,45.70
2024-02-11T09:01:35.247Z,46.40
2024-02-11T09:03:39.057Z,46.47
2024-02-11T09:05:41.246Z,45.70
2024-02-11T09:07:44.257Z,45.63
2024-02-11T09:09:46.608Z,45.60
2024-02-11T09:11:48.679Z,47.93
2024-02-11T09:13:50.845Z,44.60
2024-02-11T09:15:54.183Z,46.20
2024-02-11T09:17:56.254Z,45.27
2024-02-11T09:19:58.540Z,44.60
2024-02-11T09:22:00.751Z,46.03
2024-02-11T09:24:02.974Z,43.73
2024-02-11T09:26:06.863Z,44.10
2024-02-11T09:28:09.456Z,43.90
2024-02-11T09:30:18.150Z,46.40
2024-02-11T09:32:20.915Z,44.60
2024-02-11T09:34:23.883Z,46.03
2024-02-11T09:36:26.174Z,46.47
2024-02-11T09:38:29.332Z,44.17
2024-02-11T09:40:31.438Z,44.90
2024-02-11T09:42:33.614Z,43.70
2024-02-11T09:44:36.436Z,44.83
2024-02-11T09:46:41.918Z,48.90
2024-02-11T09:48:46.317Z,44.97
2024-02-11T09:50:48.713Z,46.20
2024-02-11T09:52:51.808Z,42.97
2024-02-11T09:54:54.518Z,47.17
2024-02-11T09:56:57.139Z,47.13
2024-02-11T09:58:59.535Z,43.60
2024-02-11T10:01:01.942Z,44.67
2024-02-11T10:03:08.715Z,44.27
2024-02-11T10:05:12.788Z,43.23
2024-02-11T10:07:25.672Z,41.37
2024-02-11T10:09:27.889Z,43.70
2024-02-11T10:11:31.039Z,42.27
2024-02-11T10:13:33.393Z,43.90
2024-02-11T10:15:41.878Z,41.70
2024-02-11T10:17:44.789Z,43.93
2024-02-11T10:19:47.505Z,41.10
2024-02-11T10:21:49.627Z,42.90
2024-02-11T10:23:51.900Z,41.63
2024-02-11T10:25:54.603Z,46.17
2024-02-11T10:27:57.165Z,41.57
2024-02-11T10:29:59.446Z,44.33
2024-02-11T10:32:01.544Z,41.20
2024-02-11T10:34:05.070Z,42.20
2024-02-11T10:36:08.122Z,40.77
2024-02-11T10:38:10.386Z,42.30
2024-02-11T10:40:13.326Z,41.63
2024-02-11T10:42:15.912Z,41.10
2024-02-11T10:44:18.186Z,43.27
2024-02-11T10:46:23.232Z,45.50
2024-02-11T10:48:25.337Z,42.60
2024-02-11T10:50:28.029Z,41.23
2024-02-11T10:52:33.204Z,42.27
2024-02-11T10:54:42.811Z,44.93
2024-02-11T10:56:45.326Z,42.23
2024-02-11T10:58:52.301Z,43.57
2024-02-11T11:00:58.299Z,42.13
2024-02-11T11:03:03.287Z,41.77
2024-02-11T11:05:09.728Z,41.37
2024-02-11T11:07:13.869Z,41.20
2024-02-11T11:09:16.268Z,41.30
2024-02-11T11:11:28.681Z,39.20
2024-02-11T11:13:32.921Z,38.30
2024-02-11T11:15:38.881Z,40.10
2024-02-11T11:17:41.531Z,37.77
2024-02-11T11:19:51.048Z,37.97
2024-02-11T11:21:57.189Z,38.10
2024-02-11T11:24:00.717Z,38.77
2024-02-11T11:26:02.799Z,36.10
2024-02-11T11:28:13.745Z,34.83
2024-02-11T11:30:15.889Z,37.10
2024-02-11T11:32:25.531Z,36.00
2024-02-11T11:34:29.203Z,36.87
2024-02-11T11:36:31.856Z,35.33
2024-02-11T11:38:34.034Z,36.97
2024-02-11T11:40:38.654Z,39.20
2024-02-11T11:42:41.299Z,35.53
2024-02-11T11:44:43.462Z,37.27
2024-02-11T11:46:45.537Z,37.40
2024-02-11T11:48:48.001Z,37.60
2024-02-11T11:50:56.388Z,37.23
2024-02-11T11:53:01.752Z,36.87
2024-02-11T11:55:06.463Z,35.80
2024-02-11T11:57:14.843Z,35.43
2024-02-11T11:59:18.404Z,37.17
2024-02-11T12:01:20.604Z,37.93
2024-02-11T12:03:23.543Z,39.90
2024-02-11T12:05:25.788Z,40.43
2024-02-11T12:07:29.061Z,50.30
2024-02-11T12:09:31.209Z,43.67
2024-02-11T12:11:33.285Z,40.63
2024-02-11T12:13:37.150Z,43.47
2024-02-11T12:15:39.318Z,53.93
2024-02-11T12:17:41.419Z,52.40
2024-02-11T12:19:44.954Z,48.27
2024-02-11T12:21:48.468Z,43.30
2024-02-11T12:23:51.068Z,41.90
2024-02-11T12:25:57.319Z,41.33
2024-02-11T12:27:59.432Z,40.37
2024-02-11T12:30:02.444Z,40.53
2024-02-11T12:32:05.132Z,40.10
2024-02-11T12:34:08.928Z,42.63
2024-02-11T12:36:23.078Z,40.13
2024-02-11T12:38:25.365Z,39.70
2024-02-11T12:40:27.627Z,42.23
2024-02-11T12:42:29.698Z,42.10
2024-02-11T12:44:32.097Z,42.17
2024-02-11T12:46:34.230Z,44.20
2024-02-11T12:48:37.351Z,43.63
2024-02-11T12:50:39.441Z,43.00
2024-02-11T12:52:41.689Z,43.80
2024-02-11T12:54:44.923Z,40.90
2024-02-11T12:56:47.034Z,43.70
2024-02-11T12:58:52.195Z,41.20
2024-02-11T13:00:55.317Z,40.93
2024-02-11T13:02:57.409Z,43.20
2024-02-11T13:05:00.654Z,41.07
2024-02-11T13:07:02.832Z,42.47
2024-02-11T13:09:04.907Z,44.50
2024-02-11T13:11:07.573Z,42.37
2024-02-11T13:13:11.999Z,41.80
2024-02-11T13:15:14.045Z,37.70
2024-02-11T13:17:16.072Z,39.40
2024-02-11T13:19:19.289Z,43.07
2024-02-11T13:21:22.144Z,38.40
2024-02-11T13:23:24.533Z,42.67
2024-02-11T13:25:26.780Z,41.77
2024-02-11T13:27:28.884Z,42.23
2024-02-11T13:29:30.966Z,39.47
2024-02-11T13:31:33.647Z,38.97
2024-02-11T13:33:35.723Z,37.63
2024-02-11T13:35:41.345Z,40.73
2024-02-11T13:37:43.457Z,37.60
2024-02-11T13:39:45.628Z,39.43
2024-02-11T13:41:47.733Z,38.43
2024-02-11T13:43:49.885Z,37.47
2024-02-11T13:45:52.054Z,39.30
2024-02-11T13:47:54.189Z,39.33
2024-02-11T13:49:56.328Z,38.77
2024-02-11T13:51:59.712Z,42.37
2024-02-11T13:54:04.303Z,42.87
2024-02-11T13:56:08.088Z,47.90
2024-02-11T13:58:10.136Z,47.67
2024-02-11T14:00:12.928Z,49.00
2024-02-11T14:02:15.101Z,43.10
2024-02-11T14:04:18.114Z,46.90
2024-02-11T14:06:21.595Z,48.47
2024-02-11T14:08:24.978Z,51.83
2024-02-11T14:10:27.646Z,51.20
2024-02-11T14:12:34.687Z,49.40
2024-02-11T14:14:40.382Z,47.83
2024-02-11T14:16:42.882Z,48.20
2024-02-11T14:18:45.154Z,46.90
2024-02-11T14:20:49.226Z,54.33
2024-02-11T14:22:51.355Z,47.03
2024-02-11T14:24:53.633Z,48.57
2024-02-11T14:26:57.467Z,53.73
2024-02-11T14:28:59.554Z,48.07
2024-02-11T14:31:02.175Z,51.80
2024-02-11T14:33:04.865Z,53.97
2024-02-11T14:35:08.470Z,49.57
2024-02-11T14:37:10.469Z,50.97
2024-02-11T14:39:13.537Z,50.93
2024-02-11T14:41:20.073Z,49.53
2024-02-11T14:43:22.154Z,50.20
2024-02-11T14:45:26.858Z,48.40
2024-02-11T14:47:30.085Z,55.60
2024-02-11T14:49:32.167Z,51.27
2024-02-11T14:51:34.231Z,52.87
2024-02-11T14:53:36.201Z,54.17
2024-02-11T14:55:38.338Z,50.60
2024-02-11T14:57:41.705Z,53.40
2024-02-11T14:59:43.886Z,53.93
2024-02-11T15:01:45.999Z,52.80
2024-02-11T15:03:48.377Z,54.70
2024-02-11T15:05:50.559Z,56.10
2024-02-11T15:07:52.863Z,53.90
2024-02-11T15:09:57.223Z,52.17
2024-02-11T15:12:01.104Z,51.53
2024-02-11T15:14:03.400Z,50.13
2024-02-11T15:16:07.003Z,50.87
2024-02-11T15:18:11.428Z,49.10
2024-02-11T15:20:14.058Z,49.10
2024-02-11T15:22:16.916Z,47.30
2024-02-11T15:24:19.702Z,48.17
2024-02-11T15:26:25.200Z,51.60
2024-02-11T15:28:27.982Z,50.10
2024-02-11T15:30:30.085Z,46.67
2024-02-11T15:32:32.689Z,50.33
2024-02-11T15:34:39.030Z,50.20
2024-02-11T15:36:42.918Z,49.70
2024-02-11T15:38:45.012Z,49.20
2024-02-11T15:40:47.258Z,51.60
2024-02-11T15:42:49.501Z,52.53
2024-02-11T15:44:51.595Z,51.43
2024-02-11T15:46:55.127Z,51.90
2024-02-11T15:48:57.462Z,51.07
2024-02-11T15:50:59.586Z,52.83
2024-02-11T15:53:02.589Z,54.80
2024-02-11T15:55:07.140Z,50.47
2024-02-11T15:57:13.542Z,50.50
2024-02-11T15:59:15.915Z,52.87
2024-02-11T16:01:18.096Z,49.07
2024-02-11T16:03:21.146Z,49.87
2024-02-11T16:05:27.198Z,45.63
2024-02-11T16:07:29.473Z,46.77
2024-02-11T16:09:32.336Z,45.83
2024-02-11T16:11:34.413Z,44.40
2024-02-11T16:13:36.775Z,47.50
2024-02-11T16:15:39.008Z,48.13
2024-02-11T16:17:42.012Z,45.90
2024-02-11T16:19:44.341Z,47.53
2024-02-11T16:21:46.709Z,45.90
2024-02-11T16:23:49.076Z,45.70
2024-02-11T16:25:51.225Z,43.60
2024-02-11T16:27:53.398Z,46.27
2024-02-11T16:29:55.494Z,48.00
2024-02-11T16:31:59.420Z,44.10
2024-02-11T16:34:01.726Z,43.27
2024-02-11T16:36:04.311Z,42.07
2024-02-11T16:38:06.646Z,43.27
2024-02-11T16:40:09.401Z,47.17
2024-02-11T16:42:14.586Z,44.07
2024-02-11T16:44:17.401Z,47.33
2024-02-11T16:46:19.451Z,44.80
2024-02-11T16:48:24.024Z,46.77
2024-02-11T16:50:26.507Z,43.70
2024-02-11T16:52:28.600Z,44.53
2024-02-11T16:54:30.718Z,50.10
2024-02-11T16:56:32.792Z,45.43
2024-02-11T16:58:34.874Z,43.27
2024-02-11T17:00:36.998Z,47.87
2024-02-11T17:02:39.857Z,44.10
2024-02-11T17:04:42.209Z,46.27
2024-02-11T17:06:44.264Z,46.77
2024-02-11T17:08:46.290Z,46.40
2024-02-11T17:10:48.420Z,46.83
2024-02-11T17:12:50.530Z,47.53
2024-02-11T17:14:52.791Z,47.20
2024-02-11T17:16:58.017Z,45.20
2024-02-11T17:19:03.186Z,47.40
2024-02-11T17:21:12.628Z,41.80
2024-02-11T17:23:17.565Z,42.77
2024-02-11T17:25:19.776Z,39.13
2024-02-11T17:27:23.160Z,38.70
2024-02-11T17:29:25.210Z,36.70
2024-02-11T17:31:28.592Z,37.43
2024-02-11T17:33:31.190Z,38.00
2024-02-11T17:35:33.640Z,36.70
2024-02-11T17:37:37.469Z,39.17
2024-02-11T17:39:39.505Z,37.13
2024-02-11T17:41:42.741Z,35.07
2024-02-11T17:43:44.960Z,35.33
2024-02-11T17:45:49.627Z,34.63
2024-02-11T17:47:53.543Z,33.83
2024-02-11T17:49:55.847Z,35.77
2024-02-11T17:51:57.915Z,34.73
2024-02-11T17:54:01.331Z,32.67
2024-02-11T17:56:03.465Z,32.37
2024-02-11T17:58:06.856Z,35.37
2024-02-11T18:00:10.014Z,35.87
2024-02-11T18:02:16.304Z,34.80
2024-02-11T18:04:18.845Z,32.73
2024-02-11T18:06:22.620Z,35.97
2024-02-11T18:08:24.994Z,35.63
2024-02-11T18:10:28.240Z,32.90
2024-02-11T18:12:30.320Z,33.50
2024-02-11T18:14:32.428Z,29.93
2024-02-11T18:16:34.999Z,32.70
2024-02-11T18:18:39.335Z,31.97
2024-02-11T18:20:41.676Z,31.27
2024-02-11T18:22:46.396Z,29.20
2024-02-11T18:24:50.373Z,31.40
2024-02-11T18:26:52.665Z,30.00
2024-02-11T18:28:55.627Z,29.27
2024-02-11T18:30:58.540Z,30.53
2024-02-11T18:33:01.009Z,31.70
2024-02-11T18:35:03.451Z,29.53
2024-02-11T18:37:06.189Z,31.20
2024-02-11T18:39:09.053Z,31.00
2024-02-11T18:41:13.058Z,31.83
2024-02-11T18:43:15.955Z,31.87
2024-02-11T18:45:18.091Z,31.53
2024-02-11T18:47:20.459Z,32.70
2024-02-11T18:49:22.565Z,25.57
2024-02-11T18:51:27.647Z,22.97
2024-02-11T18:53:30.576Z,20.83
2024-02-11T18:55:32.545Z,20.47
2024-02-11T18:57:34.751Z,19.03
2024-02-11T18:59:36.734Z,17.03
2024-02-11T19:01:38.806Z,15.40
2024-02-11T19:03:40.858Z,14.67
2024-02-11T19:05:44.607Z,12.37
2024-02-11T19:07:47.083Z,13.77
2024-02-11T19:09:51.996Z,13.67
2024-02-11T19:11:54.373Z,14.43
2024-02-11T19:13:56.488Z,14.10
2024-02-11T19:15:59.190Z,13.43
2024-02-11T19:18:01.290Z,14.27
2024-02-11T19:20:07.090Z,14.70
2024-02-11T19:22:17.445Z,14.03
2024-02-11T19:24:20.628Z,13.33
2024-02-11T19:26:25.411Z,13.93
2024-02-11T19:28:28.234Z,14.20
2024-02-11T19:30:30.810Z,15.03
2024-02-11T19:32:41.352Z,13.40
2024-02-11T19:35:04.474Z,15.20
2024-02-11T19:37:07.367Z,14.23
2024-02-11T19:39:10.500Z,14.40
2024-02-11T19:41:12.974Z,14.57
2024-02-11T19:43:14.987Z,13.23
2024-02-11T19:45:17.027Z,13.40
2024-02-11T19:47:32.474Z,12.80
2024-02-11T19:49:35.817Z,13.90
2024-02-11T19:51:37.870Z,14.07
2024-02-11T19:53:40.105Z,12.43
2024-02-11T19:55:42.141Z,12.50
2024-02-11T19:57:44.827Z,11.20
2024-02-11T19:59:47.807Z,12.43
2024-02-11T20:01:50.412Z,11.40
2024-02-11T20:03:52.585Z,10.70
2024-02-11T20:05:55.634Z,12.50
2024-02-11T20:07:58.606Z,11.00
2024-02-11T20:10:00.831Z,10.40
2024-02-11T20:12:03.243Z,11.00
2024-02-11T20:14:05.372Z,11.53
2024-02-11T20:16:13.543Z,10.67
2024-02-11T20:18:15.881Z,10.10
2024-02-11T20:20:18.251Z,10.03
2024-02-11T20:22:20.511Z,10.63
2024-02-11T20:24:22.926Z,9.07
2024-02-11T20:26:25.060Z,9.80
2024-02-11T20:28:29.794Z,9.90
2024-02-11T20:30:32.287Z,11.30
2024-02-11T20:32:36.173Z,11.03
2024-02-11T20:34:44.854Z,11.30
2024-02-11T20:36:50.045Z,10.63
2024-02-11T20:38:54.483Z,10.90
2024-02-11T20:41:00.346Z,9.80
2024-02-11T20:43:03.971Z,10.20
2024-02-11T20:45:06.726Z,10.77
2024-02-11T20:47:08.904Z,10.70
2024-02-11T20:49:11.911Z,10.60
2024-02-11T20:51:14.169Z,10.47
2024-02-11T20:53:16.250Z,11.93
2024-02-11T20:55:18.600Z,10.83
2024-02-11T20:57:21.043Z,11.57
2024-02-11T20:59:23.583Z,11.33
2024-02-11T21:01:25.810Z,11.33
2024-02-11T21:03:28.033Z,12.00
2024-02-11T21:05:30.236Z,11.33
2024-02-11T21:07:34.425Z,10.23
2024-02-11T21:09:36.387Z,11.70
2024-02-11T21:11:38.928Z,10.93
2024-02-11T21:14:02.322Z,10.00
2024-02-11T21:16:07.254Z,10.27
2024-02-11T21:18:09.822Z,9.60
2024-02-11T21:20:14.020Z,10.30
2024-02-11T21:22:19.969Z,10.10
2024-02-11T21:24:22.949Z,9.23
2024-02-11T21:26:25.038Z,10.30
2024-02-11T21:28:27.146Z,9.57
2024-02-11T21:30:30.669Z,9.70
2024-02-11T21:32:32.927Z,10.77
2024-02-11T21:34:36.713Z,9.37
2024-02-11T21:36:39.128Z,10.80
2024-02-11T21:38:43.545Z,8.97
2024-02-11T21:40:45.704Z,9.53
2024-02-11T21:42:50.776Z,9.37
2024-02-11T21:44:53.953Z,9.00
2024-02-11T21:46:55.974Z,9.70
2024-02-11T21:49:00.665Z,7.73
2024-02-11T21:51:04.852Z,8.50
2024-02-11T21:53:08.784Z,8.87
2024-02-11T21:55:11.589Z,9.47
2024-02-11T21:57:13.637Z,8.40
2024-02-11T21:59:16.000Z,8.27
2024-02-11T22:01:18.231Z,9.10
2024-02-11T22:03:20.405Z,9.17
2024-02-11T22:05:22.578Z,9.70
2024-02-11T22:07:24.706Z,9.73
2024-02-11T22:09:26.712Z,8.33
2024-02-11T22:11:30.186Z,8.57
2024-02-11T22:13:34.615Z,7.90
2024-02-11T22:15:36.949Z,8.13
2024-02-11T22:17:39.296Z,7.63
2024-02-11T22:19:41.475Z,7.70
2024-02-11T22:21:43.741Z,7.63
2024-02-11T22:23:46.095Z,7.10
2024-02-11T22:25:48.225Z,7.03
2024-02-11T22:27:57.403Z,6.10
2024-02-11T22:29:59.757Z,6.30
2024-02-11T22:32:01.954Z,6.20
2024-02-11T22:34:06.162Z,5.43
2024-02-11T22:36:08.996Z,5.20
2024-02-11T22:38:11.094Z,5.80
2024-02-11T22:40:16.031Z,6.30
2024-02-11T22:42:23.759Z,4.70
2024-02-11T22:44:27.591Z,5.20
2024-02-11T22:46:29.683Z,5.37
2024-02-11T22:48:31.970Z,4.83
2024-02-11T22:50:34.190Z,4.87
2024-02-11T22:52:37.216Z,5.10
2024-02-11T22:54:40.496Z,5.97
2024-02-11T22:56:43.154Z,5.30
2024-02-11T22:58:45.305Z,6.53
2024-02-11T23:00:48.105Z,6.07
2024-02-11T23:02:50.752Z,6.40
2024-02-11T23:04:54.458Z,7.03
2024-02-11T23:06:59.981Z,6.30
2024-02-11T23:09:03.636Z,6.57
2024-02-11T23:11:07.356Z,6.93
2024-02-11T23:13:09.851Z,7.20
2024-02-11T23:15:11.987Z,8.10
2024-02-11T23:17:28.216Z,6.97
2024-02-11T23:19:33.305Z,7.07
2024-02-11T23:21:38.075Z,6.87
2024-02-11T23:23:41.198Z,8.30
2024-02-11T23:25:43.393Z,8.43
2024-02-11T23:27:45.516Z,8.20
2024-02-11T23:29:47.518Z,7.97
2024-02-11T23:31:51.974Z,8.73
2024-02-11T23:33:54.736Z,8.60
2024-02-11T23:35:57.025Z,8.80
2024-02-11T23:37:59.116Z,9.30
2024-02-11T23:40:01.224Z,8.13
2024-02-11T23:42:06.939Z,9.20
2024-02-11T23:44:09.035Z,8.90
2024-02-11T23:46:11.171Z,8.50
2024-02-11T23:48:13.855Z,9.20
2024-02-11T23:50:16.848Z,9.43
2024-02-11T23:52:19.667Z,8.73
2024-02-11T23:54:21.936Z,9.10
2024-02-11T23:56:24.018Z,9.13
2024-02-11T23:58:27.519Z,9.30
